createdAt,value
2023-05-16T00:00:08.497Z,0.00
2023-05-16T00:01:08.519Z,0.00
2023-05-16T00:02:08.585Z,0.00
2023-05-16T00:03:08.699Z,0.00
2023-05-16T00:04:08.728Z,0.00
2023-05-16T00:05:08.605Z,0.00
2023-05-16T00:06:08.600Z,0.00
2023-05-16T00:07:08.623Z,0.00
2023-05-16T00:08:08.642Z,0.00
2023-05-16T00:09:08.657Z,0.00
2023-05-16T00:10:08.671Z,0.00
2023-05-16T00:11:08.689Z,0.00
2023-05-16T00:12:08.705Z,0.00
2023-05-16T00:13:08.723Z,0.00
2023-05-16T00:14:08.742Z,0.00
2023-05-16T00:15:08.765Z,0.00
2023-05-16T00:16:08.793Z,0.00
2023-05-16T00:17:08.897Z,0.00
2023-05-16T00:18:08.867Z,0.00
2023-05-16T00:20:08.843Z,0.00
2023-05-16T00:21:08.862Z,0.00
2023-05-16T00:22:08.891Z,0.00
2023-05-16T00:23:08.905Z,0.00
2023-05-16T00:24:08.911Z,0.00
2023-05-16T00:25:08.939Z,0.00
2023-05-16T00:26:08.951Z,0.00
2023-05-16T00:27:08.961Z,0.00
2023-05-16T00:28:08.982Z,0.00
2023-05-16T00:29:08.999Z,0.00
2023-05-16T00:30:09.021Z,0.00
2023-05-16T00:31:09.030Z,0.00
2023-05-16T00:32:09.133Z,0.00
2023-05-16T00:33:09.214Z,0.00
2023-05-16T00:34:09.130Z,0.00
2023-05-16T00:35:09.102Z,0.00
2023-05-16T00:36:09.130Z,0.00
2023-05-16T00:37:09.138Z,0.00
2023-05-16T00:38:09.151Z,0.00
2023-05-16T00:39:09.179Z,0.00
2023-05-16T00:40:09.192Z,0.00
2023-05-16T00:41:09.205Z,0.00
2023-05-16T00:42:09.229Z,0.00
2023-05-16T00:43:09.241Z,0.00
2023-05-16T00:44:09.260Z,0.00
2023-05-16T00:45:09.271Z,0.00
2023-05-16T00:46:09.386Z,0.00
2023-05-16T00:47:09.315Z,0.00
2023-05-16T00:48:09.446Z,0.00
2023-05-16T00:49:09.373Z,0.00
2023-05-16T00:50:09.360Z,0.00
2023-05-16T00:51:09.487Z,0.00
2023-05-16T00:52:09.393Z,0.00
2023-05-16T00:53:09.415Z,0.00
2023-05-16T00:54:09.436Z,0.00
2023-05-16T00:55:09.445Z,0.00
2023-05-16T00:56:09.465Z,0.00
2023-05-16T00:57:09.482Z,0.00
2023-05-16T00:58:09.494Z,0.00
2023-05-16T00:59:09.510Z,0.00
2023-05-16T01:00:09.531Z,0.00
2023-05-16T01:01:09.577Z,0.00
2023-05-16T01:02:09.559Z,0.00
2023-05-16T01:03:09.716Z,0.00
2023-05-16T01:04:09.711Z,0.00
2023-05-16T01:05:09.625Z,0.00
2023-05-16T01:06:09.627Z,0.00
2023-05-16T01:07:09.655Z,0.00
2023-05-16T01:08:09.669Z,0.00
2023-05-16T01:09:09.680Z,0.00
2023-05-16T01:10:09.715Z,0.00
2023-05-16T01:11:09.709Z,0.00
2023-05-16T01:12:09.734Z,0.00
2023-05-16T01:13:09.745Z,0.00
2023-05-16T01:14:09.779Z,0.00
2023-05-16T01:15:09.780Z,0.00
2023-05-16T01:16:09.844Z,0.00
2023-05-16T01:17:09.810Z,0.00
2023-05-16T01:18:09.900Z,0.00
2023-05-16T01:19:09.889Z,0.00
2023-05-16T01:20:09.860Z,0.00
2023-05-16T01:21:09.878Z,0.00
2023-05-16T01:22:09.894Z,0.00
2023-05-16T01:23:09.919Z,0.00
2023-05-16T01:24:09.931Z,0.00
2023-05-16T01:25:09.959Z,0.00
2023-05-16T01:26:09.973Z,0.00
2023-05-16T01:27:09.980Z,0.00
2023-05-16T01:28:09.998Z,0.00
2023-05-16T01:29:10.013Z,0.00
2023-05-16T01:30:10.026Z,0.00
2023-05-16T01:31:10.074Z,0.00
2023-05-16T01:32:10.062Z,0.00
2023-05-16T01:33:10.146Z,0.00
2023-05-16T01:34:10.098Z,0.00
2023-05-16T01:35:10.112Z,0.00
2023-05-16T01:36:10.125Z,0.00
2023-05-16T01:37:10.141Z,0.00
2023-05-16T01:38:10.159Z,0.00
2023-05-16T01:39:10.175Z,0.00
2023-05-16T01:40:10.240Z,0.00
2023-05-16T01:41:10.207Z,0.00
2023-05-16T01:42:10.237Z,0.00
2023-05-16T01:43:10.242Z,0.00
2023-05-16T01:44:10.256Z,0.00
2023-05-16T01:45:10.266Z,0.00
2023-05-16T01:46:10.347Z,0.00
2023-05-16T01:47:10.337Z,0.00
2023-05-16T01:48:10.391Z,0.00
2023-05-16T01:49:10.341Z,0.00
2023-05-16T01:50:10.357Z,0.00
2023-05-16T01:51:10.370Z,0.00
2023-05-16T01:52:10.394Z,0.00
2023-05-16T01:53:10.401Z,0.00
2023-05-16T01:54:10.419Z,0.00
2023-05-16T01:55:10.433Z,0.00
2023-05-16T01:56:10.450Z,0.00
2023-05-16T01:57:10.471Z,0.00
2023-05-16T01:58:10.482Z,0.00
2023-05-16T01:59:10.499Z,0.00
2023-05-16T02:00:10.523Z,0.00
2023-05-16T02:01:10.592Z,0.00
2023-05-16T02:02:10.559Z,0.00
2023-05-16T02:03:10.679Z,0.00
2023-05-16T02:04:10.664Z,0.00
2023-05-16T02:05:10.599Z,0.00
2023-05-16T02:06:10.618Z,0.00
2023-05-16T02:07:10.633Z,0.00
2023-05-16T02:08:10.647Z,0.00
2023-05-16T02:09:10.661Z,0.00
2023-05-16T02:10:10.695Z,0.00
2023-05-16T02:11:10.690Z,0.00
2023-05-16T02:12:10.711Z,0.00
2023-05-16T02:13:10.730Z,0.00
2023-05-16T02:14:10.752Z,0.00
2023-05-16T02:15:10.760Z,0.00
2023-05-16T02:16:10.813Z,0.00
2023-05-16T02:17:10.955Z,0.00
2023-05-16T02:18:10.864Z,0.00
2023-05-16T02:19:10.931Z,0.00
2023-05-16T02:20:10.845Z,0.00
2023-05-16T02:21:10.853Z,0.00
2023-05-16T02:22:10.882Z,0.00
2023-05-16T02:23:10.884Z,0.00
2023-05-16T02:24:10.898Z,0.00
2023-05-16T02:25:10.917Z,0.00
2023-05-16T02:26:10.940Z,0.00
2023-05-16T02:27:10.950Z,0.00
2023-05-16T02:28:11.005Z,0.00
2023-05-16T02:29:10.985Z,0.00
2023-05-16T02:30:11.000Z,0.00
2023-05-16T02:31:11.046Z,0.00
2023-05-16T02:32:11.047Z,0.00
2023-05-16T02:33:11.110Z,0.00
2023-05-16T02:34:11.075Z,0.00
2023-05-16T02:35:11.083Z,0.00
2023-05-16T02:36:11.115Z,4.00
2023-05-16T02:37:13.092Z,4.00
2023-05-16T02:38:11.124Z,0.00
2023-05-16T02:39:11.159Z,0.00
2023-05-16T02:40:11.158Z,4.00
2023-05-16T02:41:11.173Z,4.00
2023-05-16T02:42:11.191Z,4.00
2023-05-16T02:43:11.207Z,4.00
2023-05-16T02:44:11.232Z,4.00
2023-05-16T02:45:11.235Z,4.00
2023-05-16T02:46:11.303Z,4.00
2023-05-16T02:47:11.269Z,4.00
2023-05-16T02:48:11.319Z,8.00
2023-05-16T02:49:11.306Z,8.00
2023-05-16T02:50:11.311Z,8.00
2023-05-16T02:51:11.330Z,8.00
2023-05-16T02:52:11.346Z,12.00
2023-05-16T02:53:11.367Z,16.00
2023-05-16T02:54:11.378Z,16.00
2023-05-16T02:55:36.106Z,16.00
2023-05-16T02:56:11.411Z,20.00
2023-05-16T02:57:11.426Z,24.00
2023-05-16T02:58:11.440Z,24.00
2023-05-16T02:59:11.456Z,24.00
2023-05-16T03:00:11.476Z,28.00
2023-05-16T03:01:11.513Z,28.00
2023-05-16T03:02:11.565Z,32.00
2023-05-16T03:03:11.642Z,36.00
2023-05-16T03:04:11.565Z,40.00
2023-05-16T03:05:11.558Z,44.00
2023-05-16T03:06:11.571Z,52.00
2023-05-16T03:07:11.582Z,56.00
2023-05-16T03:08:11.621Z,56.00
2023-05-16T03:09:11.623Z,64.00
2023-05-16T03:10:11.637Z,72.00
2023-05-16T03:11:11.668Z,76.00
2023-05-16T03:12:11.663Z,84.00
2023-05-16T03:13:11.679Z,96.00
2023-05-16T03:14:11.705Z,104.00
2023-05-16T03:15:11.722Z,108.00
2023-05-16T03:16:11.750Z,120.00
2023-05-16T03:17:11.749Z,148.00
2023-05-16T03:18:11.837Z,148.00
2023-05-16T03:19:11.854Z,160.00
2023-05-16T03:20:11.815Z,164.00
2023-05-16T03:21:11.808Z,172.00
2023-05-16T03:22:11.829Z,180.00
2023-05-16T03:23:11.842Z,184.00
2023-05-16T03:24:11.916Z,196.00
2023-05-16T03:25:11.871Z,208.00
2023-05-16T03:26:11.898Z,220.00
2023-05-16T03:27:11.940Z,228.00
2023-05-16T03:28:13.297Z,268.00
2023-05-16T03:29:11.935Z,264.00
2023-05-16T03:30:11.966Z,288.00
2023-05-16T03:31:12.028Z,280.00
2023-05-16T03:32:12.083Z,284.00
2023-05-16T03:33:12.068Z,288.00
2023-05-16T03:34:12.018Z,272.00
2023-05-16T03:35:12.057Z,308.00
2023-05-16T03:36:12.056Z,308.00
2023-05-16T03:37:12.062Z,336.00
2023-05-16T03:38:12.077Z,344.00
2023-05-16T03:39:12.101Z,356.00
2023-05-16T03:40:12.114Z,360.00
2023-05-16T03:41:12.156Z,316.00
2023-05-16T03:42:12.143Z,328.00
2023-05-16T03:43:12.171Z,344.00
2023-05-16T03:44:12.176Z,356.00
2023-05-16T03:45:12.191Z,384.00
2023-05-16T03:46:12.269Z,396.00
2023-05-16T03:47:12.217Z,384.00
2023-05-16T03:48:12.271Z,404.00
2023-05-16T03:49:12.263Z,420.00
2023-05-16T03:50:12.274Z,424.00
2023-05-16T03:51:12.284Z,452.00
2023-05-16T03:52:12.299Z,480.00
2023-05-16T03:53:12.314Z,488.00
2023-05-16T03:54:12.330Z,524.00
2023-05-16T03:55:12.351Z,588.00
2023-05-16T03:56:12.359Z,532.00
2023-05-16T03:57:12.375Z,620.00
2023-05-16T03:58:12.394Z,608.00
2023-05-16T03:59:12.409Z,564.00
2023-05-16T04:00:12.449Z,616.00
2023-05-16T04:01:12.437Z,608.00
2023-05-16T04:02:12.526Z,664.00
2023-05-16T04:03:12.525Z,668.00
2023-05-16T04:04:12.505Z,652.00
2023-05-16T04:05:12.609Z,696.00
2023-05-16T04:06:12.649Z,648.00
2023-05-16T04:07:12.535Z,632.00
2023-05-16T04:08:12.572Z,616.00
2023-05-16T04:09:12.598Z,652.00
2023-05-16T04:10:12.592Z,644.00
2023-05-16T04:11:12.606Z,632.00
2023-05-16T04:12:12.613Z,648.00
2023-05-16T04:13:12.666Z,668.00
2023-05-16T04:14:12.642Z,732.00
2023-05-16T04:15:12.658Z,856.00
2023-05-16T04:16:12.680Z,760.00
2023-05-16T04:17:12.715Z,808.00
2023-05-16T04:18:12.733Z,780.00
2023-05-16T04:19:12.845Z,872.00
2023-05-16T04:20:12.748Z,936.00
2023-05-16T04:21:12.781Z,940.00
2023-05-16T04:22:12.771Z,924.00
2023-05-16T04:23:12.783Z,908.00
2023-05-16T04:24:12.815Z,1012.00
2023-05-16T04:25:12.826Z,940.00
2023-05-16T04:26:12.837Z,1120.00
2023-05-16T04:27:12.847Z,1096.00
2023-05-16T04:28:12.861Z,1112.00
2023-05-16T04:29:12.876Z,1164.00
2023-05-16T04:30:12.898Z,1244.00
2023-05-16T04:31:12.937Z,1324.00
2023-05-16T04:32:12.931Z,1316.00
2023-05-16T04:33:12.967Z,1260.00
2023-05-16T04:34:12.979Z,1404.00
2023-05-16T04:35:12.983Z,1552.00
2023-05-16T04:36:13.001Z,1232.00
2023-05-16T04:37:13.021Z,1288.00
2023-05-16T04:38:13.030Z,1404.00
2023-05-16T04:39:13.052Z,1396.00
2023-05-16T04:40:13.078Z,1292.00
2023-05-16T04:41:13.064Z,1380.00
2023-05-16T04:42:13.083Z,1428.00
2023-05-16T04:43:13.101Z,1532.00
2023-05-16T04:44:13.124Z,1432.00
2023-05-16T04:45:13.128Z,1508.00
2023-05-16T04:46:13.173Z,1668.00
2023-05-16T04:47:13.160Z,1488.00
2023-05-16T04:48:13.177Z,1792.00
2023-05-16T04:49:13.199Z,1652.00
2023-05-16T04:50:13.219Z,1736.00
2023-05-16T04:51:13.224Z,1872.00
2023-05-16T04:52:13.272Z,1876.00
2023-05-16T04:53:13.257Z,1828.00
2023-05-16T04:54:13.266Z,1800.00
2023-05-16T04:55:13.283Z,1764.00
2023-05-16T04:56:13.305Z,1896.00
2023-05-16T04:57:13.320Z,1692.00
2023-05-16T04:58:13.340Z,1792.00
2023-05-16T04:59:13.358Z,1680.00
2023-05-16T05:00:13.400Z,2184.00
2023-05-16T05:01:13.390Z,2012.00
2023-05-16T05:02:13.441Z,2104.00
2023-05-16T05:03:13.435Z,2080.00
2023-05-16T05:04:13.424Z,2164.00
2023-05-16T05:05:13.532Z,2060.00
2023-05-16T05:06:13.453Z,1892.00
2023-05-16T05:07:13.477Z,2124.00
2023-05-16T05:08:13.496Z,2280.00
2023-05-16T05:09:13.534Z,2176.00
2023-05-16T05:10:13.516Z,2268.00
2023-05-16T05:11:13.541Z,2352.00
2023-05-16T05:12:13.546Z,2476.00
2023-05-16T05:13:13.561Z,2420.00
2023-05-16T05:14:13.575Z,2456.00
2023-05-16T05:15:13.592Z,2544.00
2023-05-16T05:16:13.617Z,2396.00
2023-05-16T05:17:13.644Z,2720.00
2023-05-16T05:18:13.733Z,2788.00
2023-05-16T05:19:13.701Z,2904.00
2023-05-16T05:20:13.683Z,2936.00
2023-05-16T05:21:13.687Z,3060.00
2023-05-16T05:22:13.704Z,2780.00
2023-05-16T05:23:13.715Z,2776.00
2023-05-16T05:24:13.735Z,2940.00
2023-05-16T05:25:13.748Z,3424.00
2023-05-16T05:26:13.767Z,3576.00
2023-05-16T05:27:13.777Z,3440.00
2023-05-16T05:28:13.797Z,3660.00
2023-05-16T05:29:13.809Z,3620.00
2023-05-16T05:30:13.828Z,3180.00
2023-05-16T05:31:13.882Z,3136.00
2023-05-16T05:32:13.905Z,3052.00
2023-05-16T05:33:13.933Z,2860.00
2023-05-16T05:34:13.892Z,2772.00
2023-05-16T05:35:13.918Z,2900.00
2023-05-16T05:36:13.918Z,3340.00
2023-05-16T05:37:13.934Z,3388.00
2023-05-16T05:38:13.956Z,3544.00
2023-05-16T05:39:13.963Z,4284.00
2023-05-16T05:40:13.977Z,4736.00
2023-05-16T05:41:13.999Z,4420.00
2023-05-16T05:42:14.008Z,4464.00
2023-05-16T05:43:14.027Z,4432.00
2023-05-16T05:44:14.039Z,4488.00
2023-05-16T05:45:14.054Z,4888.00
2023-05-16T05:46:14.160Z,5508.00
2023-05-16T05:47:14.096Z,5352.00
2023-05-16T05:48:14.135Z,5320.00
2023-05-16T05:49:14.125Z,5764.00
2023-05-16T05:50:14.138Z,5008.00
2023-05-16T05:51:14.196Z,4748.00
2023-05-16T05:52:14.169Z,4620.00
2023-05-16T05:53:14.182Z,4380.00
2023-05-16T05:54:14.198Z,4112.00
2023-05-16T05:55:14.222Z,4184.00
2023-05-16T05:56:14.232Z,4212.00
2023-05-16T05:57:14.253Z,4352.00
2023-05-16T05:58:14.263Z,4580.00
2023-05-16T05:59:14.280Z,4868.00
2023-05-16T06:00:14.297Z,4604.00
2023-05-16T06:01:14.311Z,4984.00
2023-05-16T06:02:14.339Z,4708.00
2023-05-16T06:03:14.370Z,4588.00
2023-05-16T06:04:14.390Z,4972.00
2023-05-16T06:05:14.411Z,4940.00
2023-05-16T06:06:14.390Z,5404.00
2023-05-16T06:07:14.415Z,5744.00
2023-05-16T06:08:14.425Z,5684.00
2023-05-16T06:09:14.442Z,5336.00
2023-05-16T06:10:14.458Z,5412.00
2023-05-16T06:11:14.475Z,5156.00
2023-05-16T06:12:14.511Z,5180.00
2023-05-16T06:13:14.518Z,5732.00
2023-05-16T06:14:14.541Z,5452.00
2023-05-16T06:15:14.539Z,5384.00
2023-05-16T06:16:14.602Z,5004.00
2023-05-16T06:17:14.580Z,5384.00
2023-05-16T06:18:14.625Z,5536.00
2023-05-16T06:19:14.638Z,5808.00
2023-05-16T06:20:14.622Z,6076.00
2023-05-16T06:21:14.634Z,5868.00
2023-05-16T06:22:14.659Z,6212.00
2023-05-16T06:23:14.668Z,5984.00
2023-05-16T06:24:14.684Z,6072.00
2023-05-16T06:25:14.701Z,5596.00
2023-05-16T06:26:14.718Z,5676.00
2023-05-16T06:27:14.736Z,6076.00
2023-05-16T06:28:14.751Z,5932.00
2023-05-16T06:29:14.768Z,5972.00
2023-05-16T06:30:14.788Z,6168.00
2023-05-16T06:31:14.846Z,6136.00
2023-05-16T06:32:14.814Z,6048.00
2023-05-16T06:33:14.835Z,6232.00
2023-05-16T06:34:14.854Z,6296.00
2023-05-16T06:35:14.940Z,5724.00
2023-05-16T06:36:14.897Z,5484.00
2023-05-16T06:37:14.914Z,5732.00
2023-05-16T06:38:14.919Z,6040.00
2023-05-16T06:39:14.936Z,6540.00
2023-05-16T06:40:14.961Z,6276.00
2023-05-16T06:41:14.967Z,5904.00
2023-05-16T06:43:15.004Z,5732.00
2023-05-16T06:44:15.017Z,5644.00
2023-05-16T06:45:15.032Z,6376.00
2023-05-16T06:46:15.125Z,6624.00
2023-05-16T06:47:15.063Z,7056.00
2023-05-16T06:48:15.126Z,7140.00
2023-05-16T06:49:15.100Z,7392.00
2023-05-16T06:50:15.124Z,7620.00
2023-05-16T06:51:15.133Z,7488.00
2023-05-16T06:52:15.156Z,8092.00
2023-05-16T06:53:15.168Z,7652.00
2023-05-16T06:54:15.197Z,7704.00
2023-05-16T06:55:15.222Z,7752.00
2023-05-16T06:56:15.226Z,7348.00
2023-05-16T06:57:15.240Z,8008.00
2023-05-16T06:58:15.253Z,7436.00
2023-05-16T06:59:15.267Z,6976.00
2023-05-16T07:00:15.289Z,6776.00
2023-05-16T07:01:15.330Z,6752.00
2023-05-16T07:02:15.323Z,6988.00
2023-05-16T07:03:15.462Z,7088.00
2023-05-16T07:04:15.514Z,7508.00
2023-05-16T07:05:15.370Z,7796.00
2023-05-16T07:06:15.390Z,8132.00
2023-05-16T07:07:15.403Z,8388.00
2023-05-16T07:08:15.423Z,8172.00
2023-05-16T07:09:15.438Z,8156.00
2023-05-16T07:10:15.456Z,8056.00
2023-05-16T07:11:15.473Z,7748.00
2023-05-16T07:12:15.487Z,7452.00
2023-05-16T07:13:15.507Z,7624.00
2023-05-16T07:14:15.564Z,7900.00
2023-05-16T07:15:15.537Z,7848.00
2023-05-16T07:16:15.583Z,7948.00
2023-05-16T07:17:15.573Z,8188.00
2023-05-16T07:18:15.675Z,8404.00
2023-05-16T07:19:15.664Z,8576.00
2023-05-16T07:20:15.622Z,9000.00
2023-05-16T07:21:15.641Z,9080.00
2023-05-16T07:22:15.655Z,8972.00
2023-05-16T07:23:15.884Z,8928.00
2023-05-16T07:24:15.692Z,10844.00
2023-05-16T07:25:15.723Z,10376.00
2023-05-16T07:26:15.727Z,9896.00
2023-05-16T07:27:15.744Z,10396.00
2023-05-16T07:28:15.763Z,11548.00
2023-05-16T07:29:15.786Z,12160.00
2023-05-16T07:30:15.806Z,13316.00
2023-05-16T07:31:15.864Z,13320.00
2023-05-16T07:32:15.974Z,13156.00
2023-05-16T07:33:15.844Z,13752.00
2023-05-16T07:34:15.871Z,13168.00
2023-05-16T07:35:15.880Z,11316.00
2023-05-16T07:36:17.542Z,10876.00
2023-05-16T07:37:15.916Z,10988.00
2023-05-16T07:38:15.936Z,12260.00
2023-05-16T07:39:15.970Z,13720.00
2023-05-16T07:40:15.966Z,14580.00
2023-05-16T07:41:15.985Z,12636.00
2023-05-16T07:42:16.002Z,11924.00
2023-05-16T07:43:16.020Z,12044.00
2023-05-16T07:44:16.036Z,12728.00
2023-05-16T07:45:16.056Z,12276.00
2023-05-16T07:46:16.159Z,11600.00
2023-05-16T07:47:16.089Z,10912.00
2023-05-16T07:48:16.127Z,10536.00
2023-05-16T07:49:16.134Z,10116.00
2023-05-16T07:50:16.148Z,9464.00
2023-05-16T07:51:16.162Z,9472.00
2023-05-16T07:52:16.182Z,9596.00
2023-05-16T07:53:16.201Z,9312.00
2023-05-16T07:54:16.218Z,9004.00
2023-05-16T07:55:16.269Z,8856.00
2023-05-16T07:56:16.312Z,8404.00
2023-05-16T07:57:16.297Z,8192.00
2023-05-16T07:58:16.312Z,8244.00
2023-05-16T07:59:16.454Z,8352.00
2023-05-16T08:00:16.388Z,8808.00
2023-05-16T08:01:16.340Z,9200.00
2023-05-16T08:02:16.395Z,10088.00
2023-05-16T08:03:16.544Z,10916.00
2023-05-16T08:04:16.393Z,11264.00
2023-05-16T08:05:16.472Z,10984.00
2023-05-16T08:06:16.463Z,11608.00
2023-05-16T08:07:16.446Z,10572.00
2023-05-16T08:08:16.534Z,9988.00
2023-05-16T08:09:16.511Z,10816.00
2023-05-16T08:10:16.523Z,11224.00
2023-05-16T08:11:16.533Z,10520.00
2023-05-16T08:12:16.540Z,9884.00
2023-05-16T08:13:16.587Z,9688.00
2023-05-16T08:14:16.582Z,9580.00
2023-05-16T08:15:16.604Z,9220.00
2023-05-16T08:16:16.634Z,9248.00
2023-05-16T08:17:16.639Z,9444.00
2023-05-16T08:18:16.810Z,9196.00
2023-05-16T08:19:16.681Z,8536.00
2023-05-16T08:20:16.684Z,8208.00
2023-05-16T08:21:16.726Z,7944.00
2023-05-16T08:22:16.720Z,8064.00
2023-05-16T08:23:16.742Z,8240.00
2023-05-16T08:24:18.329Z,7784.00
2023-05-16T08:25:16.780Z,7148.00
2023-05-16T08:26:16.786Z,7084.00
2023-05-16T08:27:16.808Z,7432.00
2023-05-16T08:28:16.826Z,7540.00
2023-05-16T08:29:16.842Z,7352.00
2023-05-16T08:30:16.865Z,7260.00
2023-05-16T08:31:16.926Z,7880.00
2023-05-16T08:32:16.892Z,7972.00
2023-05-16T08:33:16.966Z,8072.00
2023-05-16T08:34:16.932Z,7688.00
2023-05-16T08:35:16.951Z,7364.00
2023-05-16T08:36:16.967Z,7116.00
2023-05-16T08:37:17.448Z,7112.00
2023-05-16T08:38:17.006Z,6964.00
2023-05-16T08:39:17.019Z,7004.00
2023-05-16T08:40:17.647Z,7136.00
2023-05-16T08:41:17.064Z,7056.00
2023-05-16T08:42:17.078Z,6976.00
2023-05-16T08:43:17.092Z,6956.00
2023-05-16T08:44:17.110Z,7400.00
2023-05-16T08:45:17.125Z,8968.00
2023-05-16T08:46:17.163Z,10520.00
2023-05-16T08:47:17.215Z,11244.00
2023-05-16T08:48:17.294Z,11988.00
2023-05-16T08:49:17.199Z,12256.00
2023-05-16T08:50:17.221Z,12236.00
2023-05-16T08:51:17.232Z,12040.00
2023-05-16T08:52:17.250Z,11520.00
2023-05-16T08:53:17.266Z,11132.00
2023-05-16T08:54:17.285Z,11392.00
2023-05-16T08:55:17.304Z,10432.00
2023-05-16T08:56:17.320Z,10968.00
2023-05-16T08:57:17.337Z,11412.00
2023-05-16T08:58:17.362Z,10824.00
2023-05-16T08:59:17.373Z,10284.00
2023-05-16T09:00:17.391Z,9732.00
2023-05-16T09:01:17.431Z,10060.00
2023-05-16T09:02:17.429Z,10464.00
2023-05-16T09:03:17.492Z,10392.00
2023-05-16T09:04:17.511Z,10656.00
2023-05-16T09:05:17.518Z,10720.00
2023-05-16T09:06:17.501Z,10180.00
2023-05-16T09:07:17.521Z,9976.00
2023-05-16T09:08:17.534Z,10104.00
2023-05-16T09:09:17.554Z,10140.00
2023-05-16T09:10:17.601Z,10828.00
2023-05-16T09:11:17.604Z,11308.00
2023-05-16T09:12:17.603Z,12632.00
2023-05-16T09:13:17.623Z,13560.00
2023-05-16T09:14:17.644Z,13732.00
2023-05-16T09:15:17.663Z,12092.00
2023-05-16T09:16:17.687Z,11312.00
2023-05-16T09:18:17.744Z,9976.00
2023-05-16T09:19:17.750Z,10432.00
2023-05-16T09:20:17.757Z,10156.00
2023-05-16T09:21:17.774Z,12388.00
2023-05-16T09:22:17.795Z,11472.00
2023-05-16T09:23:17.812Z,11176.00
2023-05-16T09:24:17.822Z,11444.00
2023-05-16T09:25:28.368Z,12008.00
2023-05-16T09:26:17.856Z,10276.00
2023-05-16T09:27:17.877Z,8576.00
2023-05-16T09:28:17.893Z,9328.00
2023-05-16T09:29:17.917Z,11536.00
2023-05-16T09:30:17.942Z,11920.00
2023-05-16T09:31:17.984Z,10784.00
2023-05-16T09:32:17.971Z,8724.00
2023-05-16T09:33:18.192Z,8092.00
2023-05-16T09:34:18.003Z,8024.00
2023-05-16T09:35:27.189Z,8008.00
2023-05-16T09:36:18.039Z,8072.00
2023-05-16T09:37:18.060Z,8840.00
2023-05-16T09:38:18.076Z,9592.00
2023-05-16T09:39:18.092Z,9808.00
2023-05-16T09:40:18.114Z,10092.00
2023-05-16T09:41:18.132Z,10228.00
2023-05-16T09:42:18.157Z,10604.00
2023-05-16T09:43:18.591Z,10232.00
2023-05-16T09:44:18.185Z,8176.00
2023-05-16T09:45:18.210Z,7620.00
2023-05-16T09:46:18.229Z,8480.00
2023-05-16T09:47:18.246Z,8612.00
2023-05-16T09:48:18.441Z,9084.00
2023-05-16T09:49:18.306Z,8920.00
2023-05-16T09:50:18.313Z,9960.00
2023-05-16T09:51:18.316Z,11056.00
2023-05-16T09:52:18.329Z,12560.00
2023-05-16T09:53:18.353Z,13568.00
2023-05-16T09:54:18.716Z,14372.00
2023-05-16T09:55:18.405Z,13768.00
2023-05-16T09:56:18.404Z,12672.00
2023-05-16T09:57:18.620Z,12936.00
2023-05-16T09:58:18.451Z,12092.00
2023-05-16T09:59:18.457Z,11708.00
2023-05-16T10:00:18.581Z,12312.00
2023-05-16T10:01:18.547Z,11572.00
2023-05-16T10:02:18.567Z,10900.00
2023-05-16T10:03:18.673Z,10280.00
2023-05-16T10:04:18.650Z,10424.00
2023-05-16T10:05:18.564Z,11180.00
2023-05-16T10:06:18.598Z,12052.00
2023-05-16T10:07:18.598Z,11196.00
2023-05-16T10:08:18.619Z,10392.00
2023-05-16T10:09:18.636Z,10848.00
2023-05-16T10:10:18.653Z,11852.00
2023-05-16T10:11:18.693Z,11668.00
2023-05-16T10:12:18.690Z,11348.00
2023-05-16T10:13:18.709Z,11752.00
2023-05-16T10:14:18.732Z,12360.00
2023-05-16T10:15:18.767Z,11732.00
2023-05-16T10:16:18.830Z,10776.00
2023-05-16T10:17:18.790Z,10448.00
2023-05-16T10:18:18.960Z,12372.00
2023-05-16T10:19:18.901Z,14240.00
2023-05-16T10:20:18.833Z,16452.00
2023-05-16T10:21:18.858Z,17696.00
2023-05-16T10:22:18.874Z,19040.00
2023-05-16T10:23:18.894Z,19232.00
2023-05-16T10:24:18.910Z,19328.00
2023-05-16T10:25:18.929Z,19136.00
2023-05-16T10:26:18.955Z,17888.00
2023-05-16T10:27:19.475Z,15128.00
2023-05-16T10:28:19.002Z,13232.00
2023-05-16T10:29:19.001Z,14936.00
2023-05-16T10:30:19.029Z,17856.00
2023-05-16T10:31:19.056Z,20672.00
2023-05-16T10:32:19.208Z,22976.00
2023-05-16T10:33:19.113Z,23168.00
2023-05-16T10:34:19.090Z,21888.00
2023-05-16T10:35:19.115Z,18816.00
2023-05-16T10:36:19.132Z,15512.00
2023-05-16T10:37:19.166Z,13208.00
2023-05-16T10:38:19.209Z,12568.00
2023-05-16T10:39:19.189Z,11872.00
2023-05-16T10:40:19.208Z,10712.00
2023-05-16T10:41:19.238Z,9496.00
2023-05-16T10:42:19.266Z,8384.00
2023-05-16T10:43:19.261Z,7556.00
2023-05-16T10:44:19.285Z,6932.00
2023-05-16T10:45:19.337Z,6696.00
2023-05-16T10:46:19.363Z,6596.00
2023-05-16T10:47:19.542Z,6128.00
2023-05-16T10:48:19.503Z,6148.00
2023-05-16T10:49:19.385Z,6200.00
2023-05-16T10:50:19.403Z,6816.00
2023-05-16T10:51:19.415Z,7916.00
2023-05-16T10:52:19.439Z,9048.00
2023-05-16T10:53:19.565Z,9684.00
2023-05-16T10:54:19.474Z,10664.00
2023-05-16T10:55:19.492Z,12012.00
2023-05-16T10:56:19.512Z,13220.00
2023-05-16T10:57:19.530Z,14316.00
2023-05-16T10:58:19.549Z,15672.00
2023-05-16T10:59:19.576Z,17120.00
2023-05-16T11:00:19.582Z,18464.00
2023-05-16T11:01:19.675Z,19904.00
2023-05-16T11:02:19.679Z,21216.00
2023-05-16T11:03:19.902Z,22688.00
2023-05-16T11:04:19.658Z,22816.00
2023-05-16T11:05:19.696Z,20992.00
2023-05-16T11:06:21.375Z,19488.00
2023-05-16T11:07:19.723Z,19136.00
2023-05-16T11:08:19.762Z,19232.00
2023-05-16T11:09:19.756Z,18688.00
2023-05-16T11:10:19.784Z,17440.00
2023-05-16T11:11:19.796Z,18272.00
2023-05-16T11:12:19.814Z,17312.00
2023-05-16T11:13:19.832Z,17984.00
2023-05-16T11:14:19.865Z,16488.00
2023-05-16T11:15:19.876Z,15872.00
2023-05-16T11:16:19.949Z,16172.00
2023-05-16T11:17:19.957Z,14160.00
2023-05-16T11:18:19.992Z,13476.00
2023-05-16T11:19:20.050Z,15432.00
2023-05-16T11:20:19.973Z,16272.00
2023-05-16T11:21:19.992Z,15604.00
2023-05-16T11:22:20.029Z,15144.00
2023-05-16T11:23:20.041Z,15196.00
2023-05-16T11:24:21.509Z,14912.00
2023-05-16T11:25:20.074Z,13780.00
2023-05-16T11:26:20.090Z,12920.00
2023-05-16T11:27:20.112Z,14020.00
2023-05-16T11:28:20.130Z,14304.00
2023-05-16T11:29:20.153Z,13384.00
2023-05-16T11:30:20.171Z,13272.00
2023-05-16T11:31:20.269Z,13268.00
2023-05-16T11:32:20.216Z,13432.00
2023-05-16T11:33:20.285Z,13912.00
2023-05-16T11:34:20.250Z,13376.00
2023-05-16T11:35:20.268Z,12952.00
2023-05-16T11:36:20.290Z,12684.00
2023-05-16T11:37:20.316Z,14200.00
2023-05-16T11:38:20.330Z,15876.00
2023-05-16T11:39:20.486Z,17056.00
2023-05-16T11:40:20.370Z,18112.00
2023-05-16T11:41:20.391Z,18272.00
2023-05-16T11:42:20.406Z,18848.00
2023-05-16T11:43:20.431Z,18816.00
2023-05-16T11:44:20.448Z,18496.00
2023-05-16T11:45:20.488Z,18048.00
2023-05-16T11:46:20.525Z,18656.00
2023-05-16T11:47:20.528Z,20672.00
2023-05-16T11:48:32.505Z,22880.00
2023-05-16T11:49:20.549Z,26240.00
2023-05-16T11:50:20.575Z,35168.00
2023-05-16T11:51:20.588Z,83776.00
2023-05-16T11:52:20.615Z,76704.00
2023-05-16T11:53:20.631Z,73312.00
2023-05-16T11:54:20.655Z,67360.00
2023-05-16T11:55:32.375Z,65696.00
2023-05-16T11:56:20.706Z,58208.00
2023-05-16T11:57:20.713Z,38048.00
2023-05-16T11:58:20.742Z,70688.00
2023-05-16T11:59:20.793Z,70592.00
2023-05-16T12:00:20.782Z,22624.00
2023-05-16T12:01:20.818Z,24096.00
2023-05-16T12:02:20.832Z,23200.00
2023-05-16T12:03:20.980Z,24448.00
2023-05-16T12:04:21.180Z,24800.00
2023-05-16T12:05:20.965Z,23552.00
2023-05-16T12:06:20.945Z,23648.00
2023-05-16T12:07:23.100Z,24192.00
2023-05-16T12:08:20.969Z,24320.00
2023-05-16T12:09:21.018Z,31296.00
2023-05-16T12:10:21.022Z,39872.00
2023-05-16T12:11:21.041Z,23840.00
2023-05-16T12:12:21.080Z,21056.00
2023-05-16T12:13:21.096Z,19104.00
2023-05-16T12:14:21.118Z,18688.00
2023-05-16T12:15:21.181Z,17984.00
2023-05-16T12:16:21.254Z,15836.00
2023-05-16T12:17:21.189Z,14632.00
2023-05-16T12:18:21.546Z,14824.00
2023-05-16T12:19:21.391Z,15888.00
2023-05-16T12:20:21.259Z,17056.00
2023-05-16T12:21:21.285Z,17920.00